createdAt,value
2022-11-26T00:00:44.610Z,99.99
2022-11-26T00:01:44.667Z,99.99
2022-11-26T00:02:44.650Z,99.99
2022-11-26T00:03:44.680Z,99.99
2022-11-26T00:04:44.530Z,99.99
2022-11-26T00:05:44.529Z,99.99
2022-11-26T00:06:44.490Z,99.99
2022-11-26T00:07:44.610Z,99.99
2022-11-26T00:08:44.453Z,99.99
2022-11-26T00:09:44.433Z,99.99
2022-11-26T00:10:44.416Z,99.99
2022-11-26T00:11:44.392Z,99.99
2022-11-26T00:12:44.374Z,99.99
2022-11-26T00:13:44.354Z,99.99
2022-11-26T00:14:44.338Z,99.99
2022-11-26T00:15:44.317Z,99.99
2022-11-26T00:16:44.347Z,99.99
2022-11-26T00:17:44.275Z,99.99
2022-11-26T00:18:44.258Z,99.99
2022-11-26T00:19:44.260Z,99.99
2022-11-26T00:20:44.217Z,99.99
2022-11-26T00:21:44.199Z,99.99
2022-11-26T00:22:44.177Z,99.99
2022-11-26T00:23:44.162Z,99.99
2022-11-26T00:24:44.144Z,99.99
2022-11-26T00:25:44.119Z,99.99
2022-11-26T00:26:44.100Z,99.99
2022-11-26T00:27:44.079Z,99.99
2022-11-26T00:28:44.061Z,99.99
2022-11-26T00:29:44.038Z,99.99
2022-11-26T00:30:44.021Z,99.99
2022-11-26T00:31:44.086Z,99.99
2022-11-26T00:32:43.984Z,99.99
2022-11-26T00:33:43.961Z,99.99
2022-11-26T00:34:43.944Z,99.99
2022-11-26T00:35:43.924Z,99.99
2022-11-26T00:36:43.904Z,99.99
2022-11-26T00:37:43.884Z,99.99
2022-11-26T00:38:43.866Z,99.99
2022-11-26T00:39:43.849Z,99.99
2022-11-26T00:40:43.826Z,99.99
2022-11-26T00:41:43.805Z,99.99
2022-11-26T00:42:43.789Z,99.99
2022-11-26T00:43:43.771Z,99.99
2022-11-26T00:44:43.751Z,99.99
2022-11-26T00:45:43.796Z,99.99
2022-11-26T00:46:43.709Z,99.99
2022-11-26T00:47:43.687Z,99.99
2022-11-26T00:48:43.671Z,99.99
2022-11-26T00:49:43.654Z,99.99
2022-11-26T00:50:43.630Z,99.99
2022-11-26T00:51:43.612Z,99.99
2022-11-26T00:52:43.590Z,99.99
2022-11-26T00:53:43.572Z,99.99
2022-11-26T00:54:43.563Z,99.99
2022-11-26T00:55:43.534Z,99.99
2022-11-26T00:56:43.514Z,99.99
2022-11-26T00:57:43.494Z,99.99
2022-11-26T00:58:43.480Z,99.99
2022-11-26T00:59:43.456Z,99.99
2022-11-26T01:00:43.509Z,99.99
2022-11-26T01:01:43.420Z,99.99
2022-11-26T01:02:43.451Z,99.99
2022-11-26T01:03:43.377Z,99.99
2022-11-26T01:04:43.359Z,99.99
2022-11-26T01:05:43.338Z,99.99
2022-11-26T01:06:43.320Z,99.99
2022-11-26T01:07:51.155Z,99.99
2022-11-26T01:08:51.013Z,99.99
2022-11-26T01:10:47.277Z,99.99
2022-11-26T01:11:52.408Z,99.99
2022-11-26T01:13:51.164Z,99.99
2022-11-26T01:14:51.138Z,99.99
2022-11-26T01:16:55.193Z,99.99
2022-11-26T01:17:55.063Z,99.99
2022-11-26T01:19:59.022Z,99.99
2022-11-26T01:20:58.994Z,99.99
2022-11-26T01:23:03.015Z,99.99
2022-11-26T01:24:02.921Z,99.99
2022-11-26T01:26:06.887Z,99.99
2022-11-26T01:27:06.828Z,99.99
2022-11-26T01:28:59.717Z,99.99
2022-11-26T01:29:59.693Z,99.99
2022-11-26T01:32:03.695Z,99.99
2022-11-26T01:33:03.621Z,99.99
2022-11-26T01:35:07.555Z,99.99
2022-11-26T01:36:07.531Z,99.99
2022-11-26T01:38:11.484Z,99.99
2022-11-26T01:39:11.444Z,99.99
2022-11-26T01:41:15.410Z,99.99
2022-11-26T01:42:15.370Z,99.99
2022-11-26T01:44:19.325Z,99.99
2022-11-26T01:45:19.286Z,99.99
2022-11-26T01:47:23.271Z,99.99
2022-11-26T01:48:23.211Z,99.99
2022-11-26T01:50:27.160Z,99.99
2022-11-26T01:51:27.136Z,99.99
2022-11-26T01:53:31.095Z,99.99
2022-11-26T01:54:31.059Z,99.99
2022-11-26T01:56:35.035Z,99.99
2022-11-26T01:57:34.994Z,99.99
2022-11-26T01:59:27.871Z,99.99
2022-11-26T02:00:27.848Z,99.99
2022-11-26T02:02:32.001Z,99.99
2022-11-26T02:03:31.904Z,99.99
2022-11-26T02:05:35.830Z,99.99
2022-11-26T02:06:35.802Z,99.99
2022-11-26T02:08:39.773Z,99.99
2022-11-26T02:09:39.727Z,99.99
2022-11-26T02:11:43.697Z,99.99
2022-11-26T02:12:43.659Z,99.99
2022-11-26T02:14:47.613Z,99.99
2022-11-26T02:15:47.585Z,99.99
2022-11-26T02:17:51.582Z,99.99
2022-11-26T02:18:51.513Z,99.99
2022-11-26T02:20:55.471Z,99.99
2022-11-26T02:21:55.447Z,99.99
2022-11-26T02:23:59.419Z,99.99
2022-11-26T02:24:59.376Z,99.99
2022-11-26T02:27:03.343Z,99.99
2022-11-26T02:28:03.305Z,99.99
2022-11-26T02:30:07.260Z,99.99
2022-11-26T02:31:07.233Z,99.99
2022-11-26T02:33:11.204Z,99.99
2022-11-26T02:34:11.163Z,99.99
2022-11-26T02:36:15.106Z,99.99
2022-11-26T02:37:15.599Z,99.99
2022-11-26T02:39:07.980Z,99.99
2022-11-26T02:40:07.945Z,99.99
2022-11-26T02:42:11.889Z,99.99
2022-11-26T02:43:11.857Z,99.99
2022-11-26T02:45:15.809Z,99.99
2022-11-26T02:46:15.818Z,99.99
2022-11-26T02:48:19.762Z,99.99
2022-11-26T02:49:19.759Z,99.99
2022-11-26T02:51:23.677Z,99.99
2022-11-26T02:52:23.646Z,99.99
2022-11-26T02:54:27.616Z,99.99
2022-11-26T02:55:27.581Z,99.99
2022-11-26T02:57:31.546Z,99.99
2022-11-26T02:58:31.507Z,99.99
2022-11-26T03:00:35.465Z,99.99
2022-11-26T03:01:35.549Z,99.99
2022-11-26T03:03:39.478Z,99.99
2022-11-26T03:04:39.708Z,99.99
2022-11-26T03:06:43.319Z,99.99
2022-11-26T03:07:43.394Z,99.99
2022-11-26T03:09:36.179Z,99.99
2022-11-26T03:10:36.140Z,99.99
2022-11-26T03:12:40.108Z,99.99
2022-11-26T03:13:40.069Z,99.99
2022-11-26T03:15:44.011Z,99.99
2022-11-26T03:16:44.012Z,99.99
2022-11-26T03:18:47.948Z,99.99
2022-11-26T03:19:47.903Z,99.99
2022-11-26T03:21:51.870Z,99.99
2022-11-26T03:22:51.825Z,99.99
2022-11-26T03:24:55.779Z,99.99
2022-11-26T03:25:55.738Z,99.99
2022-11-26T03:27:59.718Z,99.99
2022-11-26T03:28:59.665Z,99.99
2022-11-26T03:29:59.644Z,99.99
2022-11-26T03:30:59.627Z,99.99
2022-11-26T03:31:59.653Z,99.99
2022-11-26T03:32:59.589Z,99.99
2022-11-26T03:33:59.576Z,99.99
2022-11-26T03:34:59.549Z,99.99
2022-11-26T03:35:59.530Z,99.99
2022-11-26T03:36:59.512Z,99.99
2022-11-26T03:37:59.490Z,99.99
2022-11-26T03:38:59.473Z,99.99
2022-11-26T03:39:59.459Z,99.99
2022-11-26T03:40:59.435Z,99.99
2022-11-26T03:41:59.412Z,99.99
2022-11-26T03:42:59.400Z,99.99
2022-11-26T03:43:59.377Z,99.99
2022-11-26T03:44:59.357Z,99.99
2022-11-26T03:45:59.379Z,99.99
2022-11-26T03:46:59.318Z,99.99
2022-11-26T03:47:59.325Z,99.99
2022-11-26T03:48:59.283Z,99.99
2022-11-26T03:49:59.260Z,99.99
2022-11-26T03:50:59.243Z,99.99
2022-11-26T03:51:59.224Z,99.99
2022-11-26T03:52:59.214Z,99.99
2022-11-26T03:53:59.197Z,99.99
2022-11-26T03:54:59.167Z,99.99
2022-11-26T03:55:59.148Z,99.99
2022-11-26T03:56:59.133Z,99.99
2022-11-26T03:57:59.106Z,99.99
2022-11-26T03:58:59.088Z,99.99
2022-11-26T03:59:59.072Z,99.99
2022-11-26T04:00:59.092Z,99.99
2022-11-26T04:01:59.033Z,99.99
2022-11-26T04:02:59.099Z,99.99
2022-11-26T04:03:58.993Z,99.99
2022-11-26T04:04:58.975Z,99.99
2022-11-26T04:05:58.955Z,99.99
2022-11-26T04:06:58.947Z,99.99
2022-11-26T04:07:58.915Z,99.99
2022-11-26T04:08:58.897Z,99.99
2022-11-26T04:09:58.885Z,99.99
2022-11-26T04:10:58.862Z,99.99
2022-11-26T04:11:58.844Z,99.99
2022-11-26T04:12:58.822Z,99.99
2022-11-26T04:13:58.808Z,99.99
2022-11-26T04:14:58.792Z,99.99
2022-11-26T04:15:58.770Z,99.99
2022-11-26T04:16:58.780Z,99.99
2022-11-26T04:17:58.723Z,99.99
2022-11-26T04:18:58.703Z,99.99
2022-11-26T04:19:58.682Z,99.99
2022-11-26T04:20:58.669Z,99.99
2022-11-26T04:21:58.647Z,99.99
2022-11-26T04:22:58.628Z,99.99
2022-11-26T04:23:58.604Z,99.99
2022-11-26T04:24:58.591Z,99.99
2022-11-26T04:25:58.569Z,99.99
2022-11-26T04:26:58.547Z,99.99
2022-11-26T04:27:58.530Z,99.99
2022-11-26T04:28:58.516Z,99.99
2022-11-26T04:29:58.494Z,99.99
2022-11-26T04:30:58.470Z,99.99
2022-11-26T04:31:58.479Z,99.99
2022-11-26T04:32:58.432Z,99.99
2022-11-26T04:33:58.413Z,99.99
2022-11-26T04:34:58.392Z,99.99
2022-11-26T04:35:58.370Z,99.99
2022-11-26T04:36:58.353Z,99.99
2022-11-26T04:37:58.334Z,99.99
2022-11-26T04:38:58.311Z,99.99
2022-11-26T04:39:58.290Z,99.99
2022-11-26T04:40:58.273Z,99.99
2022-11-26T04:41:58.250Z,99.99
2022-11-26T04:42:58.233Z,99.99
2022-11-26T04:43:58.217Z,99.99
2022-11-26T04:44:58.194Z,99.99
2022-11-26T04:45:58.204Z,99.99
2022-11-26T04:46:58.153Z,99.99
2022-11-26T04:47:58.134Z,99.99
2022-11-26T04:48:58.121Z,99.99
2022-11-26T04:49:58.099Z,99.99
2022-11-26T04:50:58.077Z,99.99
2022-11-26T04:51:58.059Z,99.99
2022-11-26T04:52:58.040Z,99.99
2022-11-26T04:54:02.558Z,99.99
2022-11-26T04:54:57.997Z,99.99
2022-11-26T04:55:57.975Z,99.99
2022-11-26T04:56:57.961Z,99.99
2022-11-26T04:57:57.934Z,99.99
2022-11-26T04:58:57.918Z,99.99
2022-11-26T04:59:57.905Z,99.99
2022-11-26T05:00:57.893Z,99.99
2022-11-26T05:01:57.855Z,99.99
2022-11-26T05:02:57.904Z,99.99
2022-11-26T05:03:57.819Z,99.99
2022-11-26T05:04:57.797Z,99.99
2022-11-26T05:05:57.774Z,99.99
2022-11-26T05:06:57.761Z,99.99
2022-11-26T05:07:57.800Z,99.99
2022-11-26T05:08:57.717Z,99.99
2022-11-26T05:09:57.701Z,99.99
2022-11-26T05:10:57.675Z,99.99
2022-11-26T05:11:57.656Z,99.99
2022-11-26T05:12:57.638Z,99.99
2022-11-26T05:13:57.617Z,99.99
2022-11-26T05:14:57.598Z,99.99
2022-11-26T05:15:57.579Z,99.99
2022-11-26T05:16:57.618Z,99.99
2022-11-26T05:17:57.536Z,99.99
2022-11-26T05:18:58.435Z,99.99
2022-11-26T05:19:57.507Z,99.99
2022-11-26T05:20:57.482Z,99.99
2022-11-26T05:21:57.468Z,99.99
2022-11-26T05:22:57.437Z,99.99
2022-11-26T05:23:57.416Z,99.99
2022-11-26T05:24:57.396Z,99.99
2022-11-26T05:25:57.375Z,99.99
2022-11-26T05:26:57.558Z,99.99
2022-11-26T05:27:57.334Z,99.99
2022-11-26T05:28:57.316Z,99.99
2022-11-26T05:29:57.294Z,99.99
2022-11-26T05:30:57.277Z,99.99
2022-11-26T05:31:57.313Z,99.99
2022-11-26T05:32:57.238Z,99.99
2022-11-26T05:33:57.215Z,99.99
2022-11-26T05:35:00.191Z,99.99
2022-11-26T05:35:57.230Z,99.99
2022-11-26T05:36:57.221Z,99.99
2022-11-26T05:37:57.133Z,99.99
2022-11-26T05:38:57.116Z,99.99
2022-11-26T05:39:57.096Z,99.99
2022-11-26T05:40:57.075Z,99.99
2022-11-26T05:41:57.056Z,99.99
2022-11-26T05:42:57.037Z,99.99
2022-11-26T05:43:57.016Z,99.99
2022-11-26T05:44:56.994Z,99.99
2022-11-26T05:45:57.031Z,99.99
2022-11-26T05:46:56.955Z,99.99
2022-11-26T05:47:56.935Z,99.99
2022-11-26T05:48:56.915Z,99.99
2022-11-26T05:49:56.898Z,99.99
2022-11-26T05:50:56.874Z,99.99
2022-11-26T05:51:56.857Z,99.99
2022-11-26T05:52:56.833Z,99.99
2022-11-26T05:53:56.812Z,99.99
2022-11-26T05:54:56.795Z,99.99
2022-11-26T05:55:56.775Z,99.99
2022-11-26T05:57:00.063Z,99.99
2022-11-26T05:57:56.733Z,99.99
2022-11-26T05:58:56.717Z,99.99
2022-11-26T05:59:56.692Z,99.99
2022-11-26T06:00:56.673Z,99.99
2022-11-26T06:01:56.710Z,99.99
2022-11-26T06:02:56.710Z,99.99
2022-11-26T06:03:56.686Z,99.99
2022-11-26T06:04:56.588Z,99.99
2022-11-26T06:05:56.574Z,99.99
2022-11-26T06:06:56.556Z,99.99
2022-11-26T06:07:56.565Z,99.99
2022-11-26T06:08:56.508Z,99.99
2022-11-26T06:09:56.490Z,99.99
2022-11-26T06:10:56.473Z,99.99
2022-11-26T06:11:56.453Z,99.99
2022-11-26T06:12:56.431Z,99.99
2022-11-26T06:13:56.412Z,99.99
2022-11-26T06:14:56.390Z,99.99
2022-11-26T06:15:56.371Z,99.99
2022-11-26T06:16:56.388Z,99.99
2022-11-26T06:17:56.329Z,99.99
2022-11-26T06:18:56.309Z,99.99
2022-11-26T06:19:56.291Z,99.99
2022-11-26T06:20:56.267Z,99.99
2022-11-26T06:21:56.247Z,99.99
2022-11-26T06:22:56.234Z,99.99
2022-11-26T06:23:59.616Z,99.99
2022-11-26T06:24:56.185Z,99.99
2022-11-26T06:25:56.166Z,99.99
2022-11-26T06:26:56.151Z,99.99
2022-11-26T06:27:56.127Z,99.99
2022-11-26T06:28:56.108Z,99.99
2022-11-26T06:29:56.090Z,99.99
2022-11-26T06:30:56.064Z,99.99
2022-11-26T06:31:56.079Z,99.99
2022-11-26T06:32:56.026Z,99.99
2022-11-26T06:33:56.008Z,99.99
2022-11-26T06:34:55.989Z,99.99
2022-11-26T06:35:55.967Z,99.99
2022-11-26T06:36:55.947Z,99.99
2022-11-26T06:37:55.941Z,99.99
2022-11-26T06:38:55.904Z,99.99
2022-11-26T06:39:55.882Z,99.99
2022-11-26T06:40:55.864Z,99.99
2022-11-26T06:41:55.842Z,99.99
2022-11-26T06:42:55.830Z,99.99
2022-11-26T06:43:55.800Z,99.99
2022-11-26T06:44:59.588Z,99.99
2022-11-26T06:45:55.853Z,99.99
2022-11-26T06:46:55.740Z,99.99
2022-11-26T06:47:55.725Z,99.99
2022-11-26T06:48:55.700Z,99.99
2022-11-26T06:49:55.681Z,99.99
2022-11-26T06:50:55.660Z,99.99
2022-11-26T06:51:55.647Z,99.99
2022-11-26T06:52:55.621Z,99.99
2022-11-26T06:53:55.599Z,99.99
2022-11-26T06:54:55.581Z,99.99
2022-11-26T06:55:55.558Z,99.99
2022-11-26T06:56:55.541Z,99.99
2022-11-26T06:57:55.520Z,99.99
2022-11-26T06:58:55.497Z,99.99
2022-11-26T06:59:55.477Z,99.99
2022-11-26T07:00:55.500Z,99.99
2022-11-26T07:01:55.588Z,99.99
2022-11-26T07:02:55.449Z,99.99
2022-11-26T07:03:55.400Z,99.99
2022-11-26T07:04:55.372Z,99.99
2022-11-26T07:05:55.354Z,99.99
2022-11-26T07:06:55.335Z,99.99
2022-11-26T07:07:55.381Z,99.99
2022-11-26T07:09:02.489Z,99.99
2022-11-26T07:10:59.253Z,99.99
2022-11-26T07:11:59.216Z,99.99
2022-11-26T07:14:03.161Z,99.99
2022-11-26T07:15:03.137Z,99.99
2022-11-26T07:17:07.098Z,99.99
2022-11-26T07:18:07.059Z,99.99
2022-11-26T07:19:59.959Z,99.99
2022-11-26T07:20:59.908Z,99.99
2022-11-26T07:23:03.848Z,99.99
2022-11-26T07:24:03.819Z,99.99
2022-11-26T07:26:07.780Z,99.99
2022-11-26T07:27:07.740Z,99.99
2022-11-26T07:29:11.697Z,99.99
2022-11-26T07:30:11.672Z,99.99
2022-11-26T07:31:16.255Z,99.99
2022-11-26T07:32:11.618Z,99.99
2022-11-26T07:33:11.600Z,99.99
2022-11-26T07:34:11.588Z,99.99
2022-11-26T07:35:11.559Z,99.99
2022-11-26T07:36:11.538Z,99.99
2022-11-26T07:37:11.518Z,99.99
2022-11-26T07:38:11.500Z,99.99
2022-11-26T07:39:11.476Z,99.99
2022-11-26T07:40:11.466Z,99.99
2022-11-26T07:41:11.436Z,99.99
2022-11-26T07:42:11.415Z,99.99
2022-11-26T07:43:11.397Z,99.99
2022-11-26T07:44:11.377Z,99.99
2022-11-26T07:45:11.357Z,99.99
2022-11-26T07:46:11.466Z,99.99
2022-11-26T07:47:11.316Z,99.99
2022-11-26T07:48:16.567Z,99.99
2022-11-26T07:49:11.275Z,99.99
2022-11-26T07:50:11.267Z,99.99
2022-11-26T07:51:11.237Z,99.99
2022-11-26T07:52:11.211Z,99.99
2022-11-26T07:53:11.195Z,99.99
2022-11-26T07:54:11.177Z,99.99
2022-11-26T07:55:12.807Z,99.99
2022-11-26T07:56:11.133Z,99.99
2022-11-26T07:57:11.112Z,99.99
2022-11-26T07:58:11.090Z,99.99
2022-11-26T07:59:11.070Z,99.99
2022-11-26T08:00:11.051Z,99.99
2022-11-26T08:01:11.064Z,99.99
2022-11-26T08:02:11.051Z,99.99
2022-11-26T08:03:10.993Z,99.99
2022-11-26T08:04:10.971Z,99.99
2022-11-26T08:05:10.951Z,99.99
2022-11-26T08:06:10.933Z,99.99
2022-11-26T08:07:12.039Z,99.99
2022-11-26T08:08:10.925Z,99.99
2022-11-26T08:09:10.870Z,99.99
2022-11-26T08:10:10.860Z,99.99
2022-11-26T08:11:10.833Z,99.99
2022-11-26T08:12:10.811Z,99.99
2022-11-26T08:13:10.787Z,99.99
2022-11-26T08:14:10.772Z,99.99
2022-11-26T08:15:10.752Z,99.99
2022-11-26T08:16:10.787Z,99.99
2022-11-26T08:17:10.710Z,99.99
2022-11-26T08:18:10.692Z,99.99
2022-11-26T08:19:10.665Z,99.99
2022-11-26T08:20:10.656Z,99.99
2022-11-26T08:21:10.634Z,99.99
2022-11-26T08:22:10.611Z,99.99
2022-11-26T08:23:10.592Z,99.99
2022-11-26T08:24:10.571Z,99.99
2022-11-26T08:25:10.549Z,99.99
2022-11-26T08:26:42.440Z,99.99
2022-11-26T08:27:10.519Z,99.99
2022-11-26T08:28:10.495Z,99.99
2022-11-26T08:29:10.471Z,99.99
2022-11-26T08:30:10.452Z,99.99
2022-11-26T08:31:10.454Z,99.99
2022-11-26T08:32:10.415Z,99.99
2022-11-26T08:33:10.395Z,99.99
2022-11-26T08:34:10.374Z,99.99
2022-11-26T08:35:10.354Z,99.99
2022-11-26T08:36:10.336Z,99.99
2022-11-26T08:37:10.315Z,99.99
2022-11-26T08:38:10.297Z,99.99
2022-11-26T08:39:10.278Z,99.99
2022-11-26T08:40:12.776Z,99.99
2022-11-26T08:41:10.237Z,99.99
2022-11-26T08:42:10.223Z,99.99
2022-11-26T08:43:10.198Z,99.99
2022-11-26T08:44:10.203Z,99.99
2022-11-26T08:45:10.162Z,99.99
2022-11-26T08:46:10.200Z,99.99
2022-11-26T08:47:10.139Z,99.99
2022-11-26T08:48:10.107Z,99.99
2022-11-26T08:49:10.090Z,99.99
2022-11-26T08:50:10.072Z,99.99
2022-11-26T08:51:10.049Z,99.99
2022-11-26T08:52:10.030Z,99.99
2022-11-26T08:53:10.014Z,99.99
2022-11-26T08:54:10.005Z,99.99
2022-11-26T08:55:09.974Z,99.99
2022-11-26T08:56:09.959Z,99.99
2022-11-26T08:57:09.935Z,99.99
2022-11-26T08:58:09.929Z,99.99
2022-11-26T08:59:09.899Z,99.99
2022-11-26T09:00:09.881Z,99.99
2022-11-26T09:01:09.958Z,99.99
2022-11-26T09:02:10.082Z,99.99
2022-11-26T09:03:09.867Z,99.99
2022-11-26T09:04:09.814Z,99.99
2022-11-26T09:05:09.790Z,99.99
2022-11-26T09:06:09.776Z,99.99
2022-11-26T09:07:09.799Z,99.99
2022-11-26T09:08:09.739Z,99.99
2022-11-26T09:09:09.723Z,99.99
2022-11-26T09:10:09.700Z,99.99
2022-11-26T09:11:09.709Z,99.99
2022-11-26T09:12:09.671Z,99.99
2022-11-26T09:13:09.649Z,99.99
2022-11-26T09:14:09.632Z,99.99
2022-11-26T09:15:09.707Z,99.99
2022-11-26T09:16:09.639Z,99.99
2022-11-26T09:17:09.577Z,99.99
2022-11-26T09:18:09.579Z,99.99
2022-11-26T09:19:09.543Z,99.99
2022-11-26T09:20:09.525Z,99.99
2022-11-26T09:21:09.510Z,99.99
2022-11-26T09:22:09.495Z,99.99
2022-11-26T09:23:09.481Z,99.99
2022-11-26T09:24:09.459Z,99.99
2022-11-26T09:25:09.438Z,99.99
2022-11-26T09:26:09.421Z,99.99
2022-11-26T09:27:09.442Z,99.99
2022-11-26T09:28:09.395Z,99.99
2022-11-26T09:29:09.371Z,99.99
2022-11-26T09:30:09.359Z,99.99
2022-11-26T09:31:09.336Z,99.99
2022-11-26T09:32:25.027Z,99.99
2022-11-26T09:33:09.306Z,99.99
2022-11-26T09:34:09.287Z,99.99
2022-11-26T09:35:09.267Z,99.99
2022-11-26T09:36:09.254Z,99.99
2022-11-26T09:37:09.237Z,99.99
2022-11-26T09:38:09.220Z,99.99
2022-11-26T09:39:09.203Z,99.99
2022-11-26T09:40:09.192Z,99.99
2022-11-26T09:41:09.172Z,99.99
2022-11-26T09:42:09.154Z,99.99
2022-11-26T09:43:09.136Z,99.99
2022-11-26T09:44:09.122Z,99.99
2022-11-26T09:45:09.101Z,99.99
2022-11-26T09:46:09.185Z,99.99
2022-11-26T09:47:13.266Z,99.99
2022-11-26T09:48:09.054Z,99.99
2022-11-26T09:49:09.037Z,99.99
2022-11-26T09:50:09.024Z,99.99
2022-11-26T09:51:09.004Z,99.90
2022-11-26T09:52:09.001Z,99.80
2022-11-26T09:53:08.975Z,99.99
2022-11-26T09:54:08.957Z,99.99
2022-11-26T09:55:08.942Z,99.99
2022-11-26T09:56:08.930Z,99.99
2022-11-26T09:57:08.909Z,99.99
2022-11-26T09:58:08.895Z,99.57
2022-11-26T09:59:08.875Z,99.23
2022-11-26T10:00:08.859Z,98.47
2022-11-26T10:01:08.882Z,98.75
2022-11-26T10:02:08.890Z,98.75
2022-11-26T10:03:08.814Z,98.37
2022-11-26T10:04:08.801Z,98.66
2022-11-26T10:05:08.783Z,97.66
2022-11-26T10:06:08.772Z,96.51
2022-11-26T10:07:08.815Z,96.22
2022-11-26T10:08:08.741Z,95.94
2022-11-26T10:09:08.721Z,96.32
2022-11-26T10:10:08.707Z,95.27
2022-11-26T10:11:08.683Z,93.74
2022-11-26T10:12:10.990Z,93.36
2022-11-26T10:13:19.001Z,94.89
2022-11-26T10:14:08.640Z,93.55
2022-11-26T10:15:08.623Z,93.26
2022-11-26T10:16:08.654Z,93.12
2022-11-26T10:17:08.592Z,93.02
2022-11-26T10:18:08.580Z,93.40
2022-11-26T10:19:08.563Z,93.50
2022-11-26T10:20:08.558Z,90.16
2022-11-26T10:21:08.534Z,90.34
2022-11-26T10:22:08.518Z,91.49
2022-11-26T10:23:08.501Z,91.78
2022-11-26T10:24:08.492Z,91.20
2022-11-26T10:25:08.473Z,91.25
2022-11-26T10:26:08.457Z,90.96
2022-11-26T10:27:08.440Z,90.48
2022-11-26T10:28:08.427Z,90.67
2022-11-26T10:29:08.409Z,89.53
2022-11-26T10:30:08.400Z,88.76
2022-11-26T10:31:08.402Z,89.43
2022-11-26T10:32:08.367Z,89.62
2022-11-26T10:33:08.356Z,88.29
2022-11-26T10:34:08.366Z,88.19
2022-11-26T10:35:08.324Z,88.57
2022-11-26T10:36:08.310Z,88.67
2022-11-26T10:37:08.293Z,88.23
2022-11-26T10:38:08.280Z,88.04
2022-11-26T10:39:08.262Z,87.27
2022-11-26T10:40:08.247Z,86.99
2022-11-26T10:41:08.231Z,86.90
2022-11-26T10:42:08.220Z,86.04
2022-11-26T10:43:08.210Z,85.65
2022-11-26T10:44:08.189Z,85.36
2022-11-26T10:45:11.039Z,85.08
2022-11-26T10:46:08.303Z,84.88
2022-11-26T10:47:08.145Z,85.65
2022-11-26T10:48:08.132Z,85.61
2022-11-26T10:49:08.121Z,85.41
2022-11-26T10:50:31.903Z,84.75
2022-11-26T10:51:08.086Z,84.84
2022-11-26T10:52:08.072Z,84.79
2022-11-26T10:53:08.063Z,84.41
2022-11-26T10:54:08.043Z,84.79
2022-11-26T10:55:08.028Z,84.98
2022-11-26T10:56:08.020Z,84.59
2022-11-26T10:57:08.004Z,84.06
2022-11-26T10:58:07.988Z,81.92
2022-11-26T10:59:07.968Z,82.92
2022-11-26T11:00:07.954Z,83.30
2022-11-26T11:01:07.994Z,82.24
2022-11-26T11:02:07.948Z,82.24
2022-11-26T11:03:07.911Z,81.96
2022-11-26T11:04:08.972Z,81.86
2022-11-26T11:05:07.880Z,81.86
2022-11-26T11:06:07.885Z,81.71
2022-11-26T11:07:11.882Z,81.71
2022-11-26T11:08:07.839Z,81.46
2022-11-26T11:09:07.828Z,80.99
2022-11-26T11:10:07.810Z,80.51
2022-11-26T11:11:07.795Z,80.60
2022-11-26T11:12:07.784Z,80.07
2022-11-26T11:13:07.768Z,79.01
2022-11-26T11:14:07.757Z,78.44
2022-11-26T11:15:07.743Z,78.34
2022-11-26T11:16:07.768Z,78.15
2022-11-26T11:17:07.726Z,78.34
2022-11-26T11:18:07.705Z,77.29
2022-11-26T11:19:07.688Z,75.75
2022-11-26T11:20:07.685Z,76.04
2022-11-26T11:21:07.657Z,74.98
2022-11-26T11:22:07.646Z,75.33
2022-11-26T11:23:07.634Z,76.00
2022-11-26T11:24:09.081Z,76.48
2022-11-26T11:25:07.601Z,77.25
2022-11-26T11:26:07.591Z,77.59
2022-11-26T11:27:07.581Z,77.78
2022-11-26T11:28:11.971Z,78.07
2022-11-26T11:29:07.547Z,77.75
2022-11-26T11:30:07.535Z,77.65
2022-11-26T11:31:07.591Z,78.66
2022-11-26T11:32:07.505Z,78.38
2022-11-26T11:33:07.494Z,78.86
2022-11-26T11:34:07.486Z,78.91
2022-11-26T11:35:07.462Z,79.58
2022-11-26T11:36:07.449Z,79.68
2022-11-26T11:37:10.541Z,79.58
2022-11-26T11:38:07.424Z,79.14
2022-11-26T11:39:07.408Z,79.43
2022-11-26T11:40:07.406Z,79.33
2022-11-26T11:41:07.375Z,79.43
2022-11-26T11:42:07.364Z,78.57
2022-11-26T11:43:07.352Z,77.70
2022-11-26T11:44:07.337Z,78.47
2022-11-26T11:45:07.317Z,78.38
2022-11-26T11:46:07.334Z,78.63
2022-11-26T11:47:07.290Z,79.39
2022-11-26T11:48:07.277Z,79.68
2022-11-26T11:49:07.265Z,80.02
2022-11-26T11:50:07.251Z,80.21
2022-11-26T11:51:07.233Z,79.79
2022-11-26T11:52:07.221Z,80.07
2022-11-26T11:53:07.203Z,80.04
2022-11-26T11:54:07.204Z,80.90
2022-11-26T11:55:07.178Z,81.09
2022-11-26T11:56:07.162Z,81.33
2022-11-26T11:57:07.145Z,81.90
2022-11-26T11:58:07.136Z,82.15
2022-11-26T11:59:07.121Z,82.63
2022-11-26T12:00:07.111Z,82.53
2022-11-26T12:01:07.085Z,82.63
2022-11-26T12:02:07.110Z,82.68
2022-11-26T12:03:09.400Z,83.44
2022-11-26T12:04:09.217Z,83.06
2022-11-26T12:05:07.110Z,83.25
2022-11-26T12:06:07.014Z,84.11
2022-11-26T12:07:06.996Z,84.01
2022-11-26T12:08:06.983Z,83.97
2022-11-26T12:09:06.965Z,84.45
2022-11-26T12:10:07.007Z,84.55
2022-11-26T12:11:06.929Z,84.64
2022-11-26T12:12:06.916Z,84.92
2022-11-26T12:13:06.905Z,85.12
2022-11-26T12:14:06.894Z,85.21
2022-11-26T12:15:06.869Z,84.92
2022-11-26T12:16:06.884Z,85.41
2022-11-26T12:17:06.873Z,85.17
2022-11-26T12:18:06.817Z,85.27
2022-11-26T12:19:06.801Z,84.88
2022-11-26T12:20:06.789Z,85.74
2022-11-26T12:21:06.773Z,85.74
2022-11-26T12:22:06.759Z,85.74
2022-11-26T12:23:11.493Z,85.74
2022-11-26T12:24:06.719Z,86.03
2022-11-26T12:25:06.705Z,86.41
2022-11-26T12:26:06.688Z,86.08
2022-11-26T12:27:06.711Z,86.36
2022-11-26T12:28:06.664Z,86.36
2022-11-26T12:29:06.639Z,87.03
2022-11-26T12:30:06.626Z,86.46
2022-11-26T12:31:06.610Z,86.75
2022-11-26T12:32:06.659Z,87.23
2022-11-26T12:33:06.571Z,87.13
2022-11-26T12:34:08.742Z,87.70
2022-11-26T12:35:06.546Z,87.89
2022-11-26T12:36:06.522Z,87.60
2022-11-26T12:37:06.507Z,87.89
2022-11-26T12:38:06.485Z,88.23
2022-11-26T12:39:06.471Z,88.70
2022-11-26T12:40:06.454Z,88.51
2022-11-26T12:41:06.441Z,88.79
2022-11-26T12:42:06.418Z,88.89
2022-11-26T12:43:06.403Z,88.79
2022-11-26T12:44:06.382Z,88.70
2022-11-26T12:45:07.435Z,89.18
2022-11-26T12:46:06.433Z,88.70
2022-11-26T12:47:06.332Z,89.56
2022-11-26T12:48:06.315Z,89.65
2022-11-26T12:49:07.224Z,89.37
2022-11-26T12:50:07.207Z,89.75
2022-11-26T12:51:06.262Z,89.84
2022-11-26T12:52:06.246Z,90.13
2022-11-26T12:53:06.231Z,90.22
2022-11-26T12:54:06.210Z,90.13
2022-11-26T12:55:06.197Z,90.13
2022-11-26T12:56:06.177Z,90.03
2022-11-26T12:57:06.162Z,90.89
2022-11-26T12:58:06.147Z,90.70
2022-11-26T12:59:06.141Z,90.80
2022-11-26T13:00:06.104Z,90.75
2022-11-26T13:01:06.146Z,90.94
2022-11-26T13:02:06.189Z,91.32
2022-11-26T13:03:06.059Z,91.13
2022-11-26T13:04:36.106Z,91.70
2022-11-26T13:05:06.021Z,91.51
2022-11-26T13:06:06.006Z,91.61
2022-11-26T13:07:05.987Z,91.70
2022-11-26T13:08:05.971Z,91.70
2022-11-26T13:09:06.044Z,92.08
2022-11-26T13:10:05.938Z,92.18
2022-11-26T13:11:08.886Z,92.56
2022-11-26T13:12:05.893Z,92.75
2022-11-26T13:13:05.881Z,92.46
2022-11-26T13:14:05.870Z,92.56
2022-11-26T13:15:05.871Z,92.65
2022-11-26T13:16:05.856Z,92.36
2022-11-26T13:17:05.812Z,92.56
2022-11-26T13:18:05.794Z,93.04
2022-11-26T13:19:06.988Z,92.84
2022-11-26T13:20:05.769Z,92.70
2022-11-26T13:21:05.738Z,93.04
2022-11-26T13:22:05.731Z,92.89
2022-11-26T13:23:05.729Z,93.84
2022-11-26T13:24:05.686Z,93.84
2022-11-26T13:25:05.673Z,93.55
2022-11-26T13:26:05.653Z,94.03
2022-11-26T13:27:05.633Z,93.55
2022-11-26T13:28:05.634Z,94.03
2022-11-26T13:29:05.592Z,94.22
2022-11-26T13:30:05.589Z,93.65
2022-11-26T13:31:05.587Z,93.84
2022-11-26T13:32:11.364Z,94.32
2022-11-26T13:33:05.528Z,94.42
2022-11-26T13:34:05.508Z,94.22
2022-11-26T13:35:05.489Z,94.42
2022-11-26T13:36:05.468Z,94.89
2022-11-26T13:37:05.476Z,94.79
2022-11-26T13:38:05.432Z,94.79
2022-11-26T13:39:05.427Z,95.56
2022-11-26T13:40:05.413Z,95.41
2022-11-26T13:41:05.383Z,95.12
2022-11-26T13:42:05.366Z,95.22
2022-11-26T13:43:05.346Z,95.12
2022-11-26T13:44:05.327Z,95.79
2022-11-26T13:45:05.358Z,95.32
2022-11-26T13:46:05.376Z,95.41
2022-11-26T13:47:05.278Z,95.70
2022-11-26T13:48:05.254Z,95.22